Metar z połowy godziny Komunikat METAR ze strony awiacja.imgw.pl Metar G00 EPMO METAR EPMO 271430Z 24013KT 8000 BKN010 01/01 Q0996 =